sensor_id;sensor_type;location;lat;lon;timestamp;P1;durP1;ratioP1;P2;durP2;ratioP2
92;SDS011;16232;48.800;9.002;2023-09-19T00:01:39;1.37;;;0.90;;
92;SDS011;16232;48.800;9.002;2023-09-19T00:04:08;2.37;;;0.90;;
92;SDS011;16232;48.800;9.002;2023-09-19T00:06:37;1.87;;;1.07;;
92;SDS011;16232;48.800;9.002;2023-09-19T00:09:05;1.40;;;1.03;;
92;SDS011;16232;48.800;9.002;2023-09-19T00:11:35;1.13;;;0.90;;
92;SDS011;16232;48.800;9.002;2023-09-19T00:14:03;1.20;;;1.00;;
92;SDS011;16232;48.800;9.002;2023-09-19T00:16:34;3.70;;;0.90;;
92;SDS011;16232;48.800;9.002;2023-09-19T00:19:02;1.57;;;0.80;;
92;SDS011;16232;48.800;9.002;2023-09-19T00:21:32;1.57;;;1.10;;
92;SDS011;16232;48.800;9.002;2023-09-19T00:24:01;2.13;;;0.90;;
92;SDS011;16232;48.800;9.002;2023-09-19T00:26:29;1.10;;;0.70;;
92;SDS011;16232;48.800;9.002;2023-09-19T00:28:56;1.20;;;0.90;;
92;SDS011;16232;48.800;9.002;2023-09-19T00:31:25;1.47;;;1.03;;
92;SDS011;16232;48.800;9.002;2023-09-19T00:33:52;1.23;;;0.70;;
92;SDS011;16232;48.800;9.002;2023-09-19T00:36:21;2.10;;;0.90;;
92;SDS011;16232;48.800;9.002;2023-09-19T00:38:50;1.30;;;0.77;;
92;SDS011;16232;48.800;9.002;2023-09-19T00:41:18;1.40;;;1.00;;
92;SDS011;16232;48.800;9.002;2023-09-19T00:43:46;1.17;;;0.97;;
92;SDS011;16232;48.800;9.002;2023-09-19T00:46:16;1.23;;;0.90;;
92;SDS011;16232;48.800;9.002;2023-09-19T00:48:44;2.10;;;1.23;;
92;SDS011;16232;48.800;9.002;2023-09-19T00:51:11;2.03;;;0.70;;
92;SDS011;16232;48.800;9.002;2023-09-19T00:53:41;1.30;;;0.80;;
92;SDS011;16232;48.800;9.002;2023-09-19T00:56:12;2.40;;;0.87;;
92;SDS011;16232;48.800;9.002;2023-09-19T00:58:43;3.33;;;0.90;;
92;SDS011;16232;48.800;9.002;2023-09-19T01:01:11;3.90;;;0.80;;
92;SDS011;16232;48.800;9.002;2023-09-19T01:03:40;1.20;;;0.87;;
92;SDS011;16232;48.800;9.002;2023-09-19T01:06:07;0.87;;;0.80;;
92;SDS011;16232;48.800;9.002;2023-09-19T01:08:34;1.17;;;0.70;;
92;SDS011;16232;48.800;9.002;2023-09-19T01:11:04;2.30;;;1.03;;
92;SDS011;16232;48.800;9.002;2023-09-19T01:13:39;1.40;;;0.60;;
92;SDS011;16232;48.800;9.002;2023-09-19T01:16:12;1.57;;;0.70;;
92;SDS011;16232;48.800;9.002;2023-09-19T01:18:47;2.37;;;1.00;;
92;SDS011;16232;48.800;9.002;2023-09-19T01:21:16;1.60;;;0.70;;
92;SDS011;16232;48.800;9.002;2023-09-19T01:23:52;1.13;;;0.70;;
92;SDS011;16232;48.800;9.002;2023-09-19T01:26:30;0.97;;;0.77;;
92;SDS011;16232;48.800;9.002;2023-09-19T01:29:16;1.10;;;0.70;;
92;SDS011;16232;48.800;9.002;2023-09-19T01:31:46;2.13;;;0.90;;
92;SDS011;16232;48.800;9.002;2023-09-19T01:34:14;1.03;;;0.80;;
92;SDS011;16232;48.800;9.002;2023-09-19T01:36:43;2.07;;;0.90;;
92;SDS011;16232;48.800;9.002;2023-09-19T01:39:11;2.27;;;0.80;;
92;SDS011;16232;48.800;9.002;2023-09-19T01:41:42;1.10;;;0.90;;
92;SDS011;16232;48.800;9.002;2023-09-19T01:44:17;2.10;;;1.10;;
92;SDS011;16232;48.800;9.002;2023-09-19T01:46:48;1.50;;;0.60;;
92;SDS011;16232;48.800;9.002;2023-09-19T01:49:18;0.60;;;0.60;;
92;SDS011;16232;48.800;9.002;2023-09-19T01:51:51;0.90;;;0.60;;
92;SDS011;16232;48.800;9.002;2023-09-19T01:54:24;0.87;;;0.63;;
92;SDS011;16232;48.800;9.002;2023-09-19T01:56:56;2.50;;;0.87;;
92;SDS011;16232;48.800;9.002;2023-09-19T01:59:28;1.13;;;0.63;;
92;SDS011;16232;48.800;9.002;2023-09-19T02:02:00;2.53;;;0.90;;
92;SDS011;16232;48.800;9.002;2023-09-19T02:04:28;0.97;;;0.80;;
92;SDS011;16232;48.800;9.002;2023-09-19T02:06:55;1.20;;;0.60;;
92;SDS011;16232;48.800;9.002;2023-09-19T02:09:23;3.13;;;0.90;;
92;SDS011;16232;48.800;9.002;2023-09-19T02:11:50;1.97;;;0.60;;
92;SDS011;16232;48.800;9.002;2023-09-19T02:14:18;1.00;;;0.80;;
92;SDS011;16232;48.800;9.002;2023-09-19T02:16:46;1.00;;;0.80;;
92;SDS011;16232;48.800;9.002;2023-09-19T02:19:17;1.47;;;0.80;;
92;SDS011;16232;48.800;9.002;2023-09-19T02:21:46;1.80;;;0.90;;
92;SDS011;16232;48.800;9.002;2023-09-19T02:24:14;1.60;;;0.70;;
92;SDS011;16232;48.800;9.002;2023-09-19T02:26:41;2.07;;;0.70;;
92;SDS011;16232;48.800;9.002;2023-09-19T02:29:09;0.80;;;0.80;;
92;SDS011;16232;48.800;9.002;2023-09-19T02:31:38;0.83;;;0.70;;
92;SDS011;16232;48.800;9.002;2023-09-19T02:34:05;1.37;;;0.70;;
92;SDS011;16232;48.800;9.002;2023-09-19T02:36:35;1.53;;;0.80;;
92;SDS011;16232;48.800;9.002;2023-09-19T02:39:02;1.30;;;0.73;;
92;SDS011;16232;48.800;9.002;2023-09-19T02:41:31;2.37;;;0.90;;
92;SDS011;16232;48.800;9.002;2023-09-19T02:43:59;2.30;;;1.07;;
92;SDS011;16232;48.800;9.002;2023-09-19T02:46:27;1.23;;;1.00;;
92;SDS011;16232;48.800;9.002;2023-09-19T02:48:54;2.10;;;0.80;;
92;SDS011;16232;48.800;9.002;2023-09-19T02:51:22;1.13;;;0.70;;
92;SDS011;16232;48.800;9.002;2023-09-19T02:53:51;1.43;;;0.60;;
92;SDS011;16232;48.800;9.002;2023-09-19T02:56:19;1.00;;;0.77;;
92;SDS011;16232;48.800;9.002;2023-09-19T02:58:47;2.33;;;0.73;;
92;SDS011;16232;48.800;9.002;2023-09-19T03:01:15;2.17;;;0.80;;
92;SDS011;16232;48.800;9.002;2023-09-19T03:03:43;1.00;;;0.87;;
92;SDS011;16232;48.800;9.002;2023-09-19T03:06:11;1.30;;;0.80;;
92;SDS011;16232;48.800;9.002;2023-09-19T03:08:40;1.87;;;0.80;;
92;SDS011;16232;48.800;9.002;2023-09-19T03:11:09;1.53;;;0.70;;
92;SDS011;16232;48.800;9.002;2023-09-19T03:13:38;1.10;;;0.73;;
92;SDS011;16232;48.800;9.002;2023-09-19T03:16:07;1.87;;;0.90;;
92;SDS011;16232;48.800;9.002;2023-09-19T03:18:34;1.50;;;0.87;;
92;SDS011;16232;48.800;9.002;2023-09-19T03:21:02;0.70;;;0.50;;
92;SDS011;16232;48.800;9.002;2023-09-19T03:23:29;1.17;;;0.63;;
92;SDS011;16232;48.800;9.002;2023-09-19T03:25:57;0.93;;;0.70;;
92;SDS011;16232;48.800;9.002;2023-09-19T03:28:25;1.57;;;0.80;;
92;SDS011;16232;48.800;9.002;2023-09-19T03:30:59;1.47;;;0.90;;
92;SDS011;16232;48.800;9.002;2023-09-19T03:33:27;0.90;;;0.80;;
92;SDS011;16232;48.800;9.002;2023-09-19T03:35:56;3.50;;;1.03;;
92;SDS011;16232;48.800;9.002;2023-09-19T03:38:24;0.97;;;0.77;;
92;SDS011;16232;48.800;9.002;2023-09-19T03:40:52;1.90;;;0.77;;
92;SDS011;16232;48.800;9.002;2023-09-19T03:43:19;1.63;;;0.73;;
92;SDS011;16232;48.800;9.002;2023-09-19T03:45:48;0.70;;;0.70;;
92;SDS011;16232;48.800;9.002;2023-09-19T03:48:16;1.43;;;0.70;;
92;SDS011;16232;48.800;9.002;2023-09-19T03:50:43;1.57;;;1.00;;
92;SDS011;16232;48.800;9.002;2023-09-19T03:53:11;1.53;;;0.80;;
92;SDS011;16232;48.800;9.002;2023-09-19T03:55:38;1.43;;;0.70;;
92;SDS011;16232;48.800;9.002;2023-09-19T03:58:06;1.20;;;0.80;;
92;SDS011;16232;48.800;9.002;2023-09-19T04:00:33;1.23;;;0.80;;
92;SDS011;16232;48.800;9.002;2023-09-19T04:03:02;2.23;;;0.80;;
92;SDS011;16232;48.800;9.002;2023-09-19T04:05:31;1.30;;;0.83;;
92;SDS011;16232;48.800;9.002;2023-09-19T04:07:59;0.73;;;0.73;;
92;SDS011;16232;48.800;9.002;2023-09-19T04:10:27;1.20;;;0.90;;
92;SDS011;16232;48.800;9.002;2023-09-19T04:12:55;1.57;;;0.80;;
92;SDS011;16232;48.800;9.002;2023-09-19T04:15:22;0.93;;;0.80;;
92;SDS011;16232;48.800;9.002;2023-09-19T04:17:50;1.10;;;0.90;;
92;SDS011;16232;48.800;9.002;2023-09-19T04:20:19;0.70;;;0.70;;
92;SDS011;16232;48.800;9.002;2023-09-19T04:22:48;1.43;;;1.00;;
92;SDS011;16232;48.800;9.002;2023-09-19T04:25:15;0.80;;;0.80;;
92;SDS011;16232;48.800;9.002;2023-09-19T04:27:43;1.63;;;1.07;;
92;SDS011;16232;48.800;9.002;2023-09-19T04:30:11;1.43;;;1.00;;
92;SDS011;16232;48.800;9.002;2023-09-19T04:32:40;2.27;;;0.90;;
92;SDS011;16232;48.800;9.002;2023-09-19T04:35:07;2.40;;;1.30;;
92;SDS011;16232;48.800;9.002;2023-09-19T04:37:38;1.50;;;1.17;;
92;SDS011;16232;48.800;9.002;2023-09-19T04:40:06;3.63;;;1.20;;
92;SDS011;16232;48.800;9.002;2023-09-19T04:42:38;3.23;;;1.23;;
92;SDS011;16232;48.800;9.002;2023-09-19T04:45:06;3.47;;;1.40;;
92;SDS011;16232;48.800;9.002;2023-09-19T04:47:35;3.00;;;1.37;;
92;SDS011;16232;48.800;9.002;2023-09-19T04:50:04;4.07;;;1.63;;
92;SDS011;16232;48.800;9.002;2023-09-19T04:52:32;1.40;;;1.20;;
92;SDS011;16232;48.800;9.002;2023-09-19T04:55:01;1.97;;;1.30;;
92;SDS011;16232;48.800;9.002;2023-09-19T04:57:29;2.53;;;1.20;;
92;SDS011;16232;48.800;9.002;2023-09-19T04:59:57;2.80;;;1.60;;
92;SDS011;16232;48.800;9.002;2023-09-19T05:02:24;4.13;;;2.17;;
92;SDS011;16232;48.800;9.002;2023-09-19T05:04:51;3.37;;;1.90;;
92;SDS011;16232;48.800;9.002;2023-09-19T05:07:19;6.87;;;3.70;;
92;SDS011;16232;48.800;9.002;2023-09-19T05:09:51;2.10;;;1.77;;
92;SDS011;16232;48.800;9.002;2023-09-19T05:12:20;2.37;;;2.00;;
92;SDS011;16232;48.800;9.002;2023-09-19T05:14:47;2.20;;;1.50;;
92;SDS011;16232;48.800;9.002;2023-09-19T05:17:15;1.97;;;1.60;;
92;SDS011;16232;48.800;9.002;2023-09-19T05:19:42;2.90;;;2.03;;
92;SDS011;16232;48.800;9.002;2023-09-19T05:22:11;3.63;;;2.10;;
92;SDS011;16232;48.800;9.002;2023-09-19T05:24:39;7.63;;;2.43;;
92;SDS011;16232;48.800;9.002;2023-09-19T05:27:06;8.33;;;2.27;;
92;SDS011;16232;48.800;9.002;2023-09-19T05:29:35;5.50;;;1.97;;
92;SDS011;16232;48.800;9.002;2023-09-19T05:32:03;3.23;;;2.20;;
92;SDS011;16232;48.800;9.002;2023-09-19T05:34:30;3.07;;;1.80;;
92;SDS011;16232;48.800;9.002;2023-09-19T05:36:58;4.73;;;2.20;;
92;SDS011;16232;48.800;9.002;2023-09-19T05:39:25;5.47;;;2.23;;
92;SDS011;16232;48.800;9.002;2023-09-19T05:41:52;2.43;;;1.97;;
92;SDS011;16232;48.800;9.002;2023-09-19T05:44:20;2.77;;;2.33;;
92;SDS011;16232;48.800;9.002;2023-09-19T05:46:48;3.33;;;2.13;;
92;SDS011;16232;48.800;9.002;2023-09-19T05:49:17;5.93;;;3.10;;
92;SDS011;16232;48.800;9.002;2023-09-19T05:51:46;2.83;;;2.03;;
92;SDS011;16232;48.800;9.002;2023-09-19T05:54:14;2.40;;;2.03;;
92;SDS011;16232;48.800;9.002;2023-09-19T05:56:43;2.30;;;1.80;;
92;SDS011;16232;48.800;9.002;2023-09-19T05:59:12;5.77;;;3.40;;
92;SDS011;16232;48.800;9.002;2023-09-19T06:01:40;4.90;;;2.67;;
92;SDS011;16232;48.800;9.002;2023-09-19T06:04:09;2.63;;;1.73;;
92;SDS011;16232;48.800;9.002;2023-09-19T06:06:36;3.37;;;2.93;;
92;SDS011;16232;48.800;9.002;2023-09-19T06:09:05;2.80;;;2.60;;
92;SDS011;16232;48.800;9.002;2023-09-19T06:11:33;4.47;;;2.27;;
92;SDS011;16232;48.800;9.002;2023-09-19T06:14:01;1.90;;;1.70;;
92;SDS011;16232;48.800;9.002;2023-09-19T06:16:28;4.97;;;2.70;;
92;SDS011;16232;48.800;9.002;2023-09-19T06:18:57;5.10;;;3.80;;
92;SDS011;16232;48.800;9.002;2023-09-19T06:21:26;3.97;;;2.53;;
92;SDS011;16232;48.800;9.002;2023-09-19T06:23:54;3.87;;;2.47;;
92;SDS011;16232;48.800;9.002;2023-09-19T06:26:23;2.53;;;2.00;;
92;SDS011;16232;48.800;9.002;2023-09-19T06:28:52;2.70;;;2.20;;
92;SDS011;16232;48.800;9.002;2023-09-19T06:31:21;4.10;;;2.80;;
92;SDS011;16232;48.800;9.002;2023-09-19T06:33:51;6.27;;;2.87;;
92;SDS011;16232;48.800;9.002;2023-09-19T06:36:18;5.33;;;2.67;;
92;SDS011;16232;48.800;9.002;2023-09-19T06:38:47;4.87;;;2.50;;
92;SDS011;16232;48.800;9.002;2023-09-19T06:41:16;4.80;;;2.50;;
92;SDS011;16232;48.800;9.002;2023-09-19T06:43:44;4.57;;;2.20;;
92;SDS011;16232;48.800;9.002;2023-09-19T06:46:11;4.87;;;2.50;;
92;SDS011;16232;48.800;9.002;2023-09-19T06:48:39;4.20;;;2.40;;
92;SDS011;16232;48.800;9.002;2023-09-19T06:51:09;5.70;;;3.17;;
92;SDS011;16232;48.800;9.002;2023-09-19T06:53:36;4.63;;;2.40;;
92;SDS011;16232;48.800;9.002;2023-09-19T06:56:06;3.33;;;2.23;;
92;SDS011;16232;48.800;9.002;2023-09-19T06:58:34;5.33;;;2.37;;
92;SDS011;16232;48.800;9.002;2023-09-19T07:01:02;3.33;;;2.53;;
92;SDS011;16232;48.800;9.002;2023-09-19T07:03:29;2.90;;;1.87;;
92;SDS011;16232;48.800;9.002;2023-09-19T07:05:58;2.80;;;1.77;;
92;SDS011;16232;48.800;9.002;2023-09-19T07:08:26;3.00;;;2.20;;
92;SDS011;16232;48.800;9.002;2023-09-19T07:10:53;3.30;;;2.10;;
92;SDS011;16232;48.800;9.002;2023-09-19T07:13:22;4.57;;;2.00;;
92;SDS011;16232;48.800;9.002;2023-09-19T07:15:50;3.10;;;2.40;;
92;SDS011;16232;48.800;9.002;2023-09-19T07:18:17;6.00;;;2.97;;
92;SDS011;16232;48.800;9.002;2023-09-19T07:20:45;4.53;;;2.67;;
92;SDS011;16232;48.800;9.002;2023-09-19T07:23:15;3.17;;;1.90;;
92;SDS011;16232;48.800;9.002;2023-09-19T07:25:43;3.63;;;2.13;;
92;SDS011;16232;48.800;9.002;2023-09-19T07:28:11;3.50;;;1.70;;
92;SDS011;16232;48.800;9.002;2023-09-19T07:30:40;3.03;;;2.37;;
92;SDS011;16232;48.800;9.002;2023-09-19T07:33:07;3.60;;;1.87;;
92;SDS011;16232;48.800;9.002;2023-09-19T07:35:36;2.70;;;1.70;;
92;SDS011;16232;48.800;9.002;2023-09-19T07:38:06;3.60;;;1.87;;
92;SDS011;16232;48.800;9.002;2023-09-19T07:40:33;3.10;;;1.50;;
92;SDS011;16232;48.800;9.002;2023-09-19T07:43:01;2.83;;;1.40;;
92;SDS011;16232;48.800;9.002;2023-09-19T07:45:30;2.93;;;1.47;;
92;SDS011;16232;48.800;9.002;2023-09-19T07:47:59;1.60;;;1.47;;
92;SDS011;16232;48.800;9.002;2023-09-19T07:50:29;4.10;;;1.77;;
92;SDS011;16232;48.800;9.002;2023-09-19T07:52:57;2.43;;;1.60;;
92;SDS011;16232;48.800;9.002;2023-09-19T07:55:24;2.43;;;1.60;;
92;SDS011;16232;48.800;9.002;2023-09-19T07:57:51;2.17;;;1.20;;
92;SDS011;16232;48.800;9.002;2023-09-19T08:00:19;2.67;;;1.30;;
92;SDS011;16232;48.800;9.002;2023-09-19T08:02:46;4.50;;;1.50;;
92;SDS011;16232;48.800;9.002;2023-09-19T08:05:15;3.33;;;1.60;;
92;SDS011;16232;48.800;9.002;2023-09-19T08:07:43;2.53;;;1.10;;
92;SDS011;16232;48.800;9.002;2023-09-19T08:10:14;1.80;;;1.10;;
92;SDS011;16232;48.800;9.002;2023-09-19T08:12:45;2.00;;;0.80;;
92;SDS011;16232;48.800;9.002;2023-09-19T08:15:13;2.93;;;1.20;;
92;SDS011;16232;48.800;9.002;2023-09-19T08:17:40;2.07;;;1.40;;
92;SDS011;16232;48.800;9.002;2023-09-19T08:20:08;2.50;;;0.90;;
92;SDS011;16232;48.800;9.002;2023-09-19T08:22:43;2.23;;;1.10;;
92;SDS011;16232;48.800;9.002;2023-09-19T08:25:12;2.77;;;1.10;;
92;SDS011;16232;48.800;9.002;2023-09-19T08:27:41;3.03;;;1.10;;
92;SDS011;16232;48.800;9.002;2023-09-19T08:30:09;2.40;;;1.10;;
92;SDS011;16232;48.800;9.002;2023-09-19T08:32:36;1.50;;;0.70;;
92;SDS011;16232;48.800;9.002;2023-09-19T08:35:05;2.93;;;1.30;;
92;SDS011;16232;48.800;9.002;2023-09-19T08:37:34;1.90;;;1.03;;
92;SDS011;16232;48.800;9.002;2023-09-19T08:40:03;3.90;;;1.50;;
92;SDS011;16232;48.800;9.002;2023-09-19T08:42:46;4.13;;;1.23;;
92;SDS011;16232;48.800;9.002;2023-09-19T08:45:14;1.87;;;0.97;;
92;SDS011;16232;48.800;9.002;2023-09-19T08:47:45;1.50;;;0.70;;
92;SDS011;16232;48.800;9.002;2023-09-19T08:50:17;3.60;;;1.20;;
92;SDS011;16232;48.800;9.002;2023-09-19T08:52:46;0.93;;;0.73;;
92;SDS011;16232;48.800;9.002;2023-09-19T08:55:15;0.93;;;0.77;;
92;SDS011;16232;48.800;9.002;2023-09-19T08:57:46;1.67;;;0.90;;
92;SDS011;16232;48.800;9.002;2023-09-19T09:00:14;1.73;;;0.90;;
92;SDS011;16232;48.800;9.002;2023-09-19T09:02:43;1.93;;;0.83;;
92;SDS011;16232;48.800;9.002;2023-09-19T09:05:12;2.20;;;1.10;;
92;SDS011;16232;48.800;9.002;2023-09-19T09:07:41;1.33;;;0.90;;
92;SDS011;16232;48.800;9.002;2023-09-19T09:10:09;1.67;;;1.00;;
92;SDS011;16232;48.800;9.002;2023-09-19T09:12:38;1.60;;;0.93;;
92;SDS011;16232;48.800;9.002;2023-09-19T09:15:06;1.70;;;1.13;;
92;SDS011;16232;48.800;9.002;2023-09-19T09:17:36;2.13;;;1.13;;
92;SDS011;16232;48.800;9.002;2023-09-19T09:20:04;2.30;;;0.80;;
92;SDS011;16232;48.800;9.002;2023-09-19T09:22:35;1.57;;;1.00;;
92;SDS011;16232;48.800;9.002;2023-09-19T09:25:05;2.07;;;1.10;;
92;SDS011;16232;48.800;9.002;2023-09-19T09:27:33;0.97;;;0.90;;
92;SDS011;16232;48.800;9.002;2023-09-19T09:30:02;1.40;;;0.80;;
92;SDS011;16232;48.800;9.002;2023-09-19T09:32:30;3.13;;;0.90;;
92;SDS011;16232;48.800;9.002;2023-09-19T09:35:00;3.67;;;1.00;;
92;SDS011;16232;48.800;9.002;2023-09-19T09:37:29;1.70;;;1.27;;
92;SDS011;16232;48.800;9.002;2023-09-19T09:39:57;1.50;;;1.00;;
92;SDS011;16232;48.800;9.002;2023-09-19T09:42:44;2.43;;;1.10;;
92;SDS011;16232;48.800;9.002;2023-09-19T09:45:13;1.77;;;1.10;;
92;SDS011;16232;48.800;9.002;2023-09-19T09:47:41;1.70;;;1.10;;
92;SDS011;16232;48.800;9.002;2023-09-19T09:50:23;2.17;;;1.13;;
92;SDS011;16232;48.800;9.002;2023-09-19T09:52:54;3.73;;;1.43;;
92;SDS011;16232;48.800;9.002;2023-09-19T09:55:26;1.20;;;0.87;;
92;SDS011;16232;48.800;9.002;2023-09-19T09:58:02;2.97;;;1.10;;
92;SDS011;16232;48.800;9.002;2023-09-19T10:00:53;2.50;;;1.20;;
92;SDS011;16232;48.800;9.002;2023-09-19T10:03:30;1.50;;;1.10;;
92;SDS011;16232;48.800;9.002;2023-09-19T10:05:59;0.97;;;0.83;;
92;SDS011;16232;48.800;9.002;2023-09-19T10:08:36;1.70;;;1.10;;
92;SDS011;16232;48.800;9.002;2023-09-19T10:11:15;1.13;;;0.93;;
92;SDS011;16232;48.800;9.002;2023-09-19T10:13:43;3.37;;;1.10;;
92;SDS011;16232;48.800;9.002;2023-09-19T10:16:13;2.20;;;1.20;;
92;SDS011;16232;48.800;9.002;2023-09-19T10:18:44;2.73;;;1.10;;
92;SDS011;16232;48.800;9.002;2023-09-19T10:21:14;1.80;;;1.10;;
92;SDS011;16232;48.800;9.002;2023-09-19T10:23:47;1.40;;;1.10;;
92;SDS011;16232;48.800;9.002;2023-09-19T10:26:17;1.40;;;1.10;;
92;SDS011;16232;48.800;9.002;2023-09-19T10:28:45;2.60;;;0.90;;
92;SDS011;16232;48.800;9.002;2023-09-19T10:31:15;1.80;;;0.80;;
92;SDS011;16232;48.800;9.002;2023-09-19T10:33:45;1.30;;;1.07;;
92;SDS011;16232;48.800;9.002;2023-09-19T10:36:14;0.77;;;0.70;;
92;SDS011;16232;48.800;9.002;2023-09-19T10:38:41;4.63;;;1.00;;
92;SDS011;16232;48.800;9.002;2023-09-19T10:41:11;1.23;;;0.90;;
92;SDS011;16232;48.800;9.002;2023-09-19T10:43:41;2.27;;;1.17;;
92;SDS011;16232;48.800;9.002;2023-09-19T10:46:11;1.70;;;0.90;;
92;SDS011;16232;48.800;9.002;2023-09-19T10:48:40;1.70;;;1.10;;
92;SDS011;16232;48.800;9.002;2023-09-19T10:51:10;1.53;;;0.90;;
92;SDS011;16232;48.800;9.002;2023-09-19T10:53:43;1.53;;;0.90;;
92;SDS011;16232;48.800;9.002;2023-09-19T10:56:15;1.47;;;0.90;;
92;SDS011;16232;48.800;9.002;2023-09-19T10:58:43;2.90;;;0.83;;
92;SDS011;16232;48.800;9.002;2023-09-19T11:01:11;2.20;;;0.70;;
92;SDS011;16232;48.800;9.002;2023-09-19T11:03:41;1.10;;;0.80;;
92;SDS011;16232;48.800;9.002;2023-09-19T11:06:10;1.90;;;0.83;;
92;SDS011;16232;48.800;9.002;2023-09-19T11:11:48;1.20;;;0.77;;
92;SDS011;16232;48.800;9.002;2023-09-19T11:14:29;1.10;;;0.90;;
92;SDS011;16232;48.800;9.002;2023-09-19T11:25:42;2.63;;;0.80;;
92;SDS011;16232;48.800;9.002;2023-09-19T11:28:28;1.50;;;0.90;;
92;SDS011;16232;48.800;9.002;2023-09-19T11:30:56;2.30;;;0.97;;
92;SDS011;16232;48.800;9.002;2023-09-19T11:33:25;1.23;;;0.60;;
92;SDS011;16232;48.800;9.002;2023-09-19T11:36:03;1.30;;;0.80;;
92;SDS011;16232;48.800;9.002;2023-09-19T11:46:53;2.10;;;0.83;;
92;SDS011;16232;48.800;9.002;2023-09-19T11:49:25;2.47;;;0.93;;
92;SDS011;16232;48.800;9.002;2023-09-19T11:51:55;1.03;;;0.73;;
92;SDS011;16232;48.800;9.002;2023-09-19T11:54:25;2.33;;;0.70;;
92;SDS011;16232;48.800;9.002;2023-09-19T11:56:57;1.67;;;1.20;;
92;SDS011;16232;48.800;9.002;2023-09-19T11:59:25;3.37;;;1.30;;
92;SDS011;16232;48.800;9.002;2023-09-19T12:01:55;3.75;;;1.25;;
92;SDS011;16232;48.800;9.002;2023-09-19T12:04:36;3.07;;;1.20;;
92;SDS011;16232;48.800;9.002;2023-09-19T12:07:04;2.90;;;1.10;;
92;SDS011;16232;48.800;9.002;2023-09-19T12:09:37;2.97;;;0.90;;
92;SDS011;16232;48.800;9.002;2023-09-19T12:12:04;1.23;;;0.80;;
92;SDS011;16232;48.800;9.002;2023-09-19T12:14:32;1.57;;;1.10;;
92;SDS011;16232;48.800;9.002;2023-09-19T12:17:01;1.80;;;1.00;;
92;SDS011;16232;48.800;9.002;2023-09-19T12:19:29;2.15;;;1.17;;
92;SDS011;16232;48.800;9.002;2023-09-19T12:21:57;1.65;;;0.93;;
92;SDS011;16232;48.800;9.002;2023-09-19T12:24:29;1.40;;;1.00;;
92;SDS011;16232;48.800;9.002;2023-09-19T12:27:00;2.63;;;1.20;;
92;SDS011;16232;48.800;9.002;2023-09-19T12:29:29;1.35;;;0.80;;
92;SDS011;16232;48.800;9.002;2023-09-19T12:31:57;0.97;;;0.90;;
92;SDS011;16232;48.800;9.002;2023-09-19T12:34:30;1.80;;;0.97;;
92;SDS011;16232;48.800;9.002;2023-09-19T12:37:06;1.77;;;1.00;;
92;SDS011;16232;48.800;9.002;2023-09-19T12:39:46;1.73;;;1.00;;
92;SDS011;16232;48.800;9.002;2023-09-19T12:42:16;1.60;;;0.87;;
92;SDS011;16232;48.800;9.002;2023-09-19T12:44:44;1.57;;;1.00;;
92;SDS011;16232;48.800;9.002;2023-09-19T12:47:13;2.00;;;1.00;;
92;SDS011;16232;48.800;9.002;2023-09-19T12:52:35;1.93;;;1.00;;
92;SDS011;16232;48.800;9.002;2023-09-19T12:55:03;2.17;;;1.10;;
92;SDS011;16232;48.800;9.002;2023-09-19T12:57:32;2.10;;;0.97;;
92;SDS011;16232;48.800;9.002;2023-09-19T13:00:00;1.57;;;0.90;;
92;SDS011;16232;48.800;9.002;2023-09-19T13:02:27;1.73;;;1.10;;
92;SDS011;16232;48.800;9.002;2023-09-19T13:04:55;1.97;;;1.33;;
92;SDS011;16232;48.800;9.002;2023-09-19T13:10:11;1.60;;;0.90;;
92;SDS011;16232;48.800;9.002;2023-09-19T13:12:41;1.77;;;0.90;;
92;SDS011;16232;48.800;9.002;2023-09-19T13:15:12;3.63;;;1.27;;
92;SDS011;16232;48.800;9.002;2023-09-19T13:17:44;1.07;;;0.90;;
92;SDS011;16232;48.800;9.002;2023-09-19T13:20:21;1.43;;;1.00;;
92;SDS011;16232;48.800;9.002;2023-09-19T13:22:52;1.03;;;0.90;;
92;SDS011;16232;48.800;9.002;2023-09-19T13:25:25;1.90;;;1.03;;
92;SDS011;16232;48.800;9.002;2023-09-19T13:27:55;2.00;;;1.00;;
92;SDS011;16232;48.800;9.002;2023-09-19T13:30:24;2.07;;;1.10;;
92;SDS011;16232;48.800;9.002;2023-09-19T13:32:51;2.17;;;1.00;;
92;SDS011;16232;48.800;9.002;2023-09-19T13:35:19;1.20;;;0.90;;
92;SDS011;16232;48.800;9.002;2023-09-19T13:37:47;2.10;;;1.30;;
92;SDS011;16232;48.800;9.002;2023-09-19T13:40:17;3.00;;;1.33;;
92;SDS011;16232;48.800;9.002;2023-09-19T13:42:45;2.80;;;1.20;;
92;SDS011;16232;48.800;9.002;2023-09-19T13:45:13;2.90;;;1.17;;
92;SDS011;16232;48.800;9.002;2023-09-19T13:47:42;2.30;;;1.90;;
92;SDS011;16232;48.800;9.002;2023-09-19T13:50:10;4.83;;;2.73;;
92;SDS011;16232;48.800;9.002;2023-09-19T13:52:37;1.83;;;1.17;;
92;SDS011;16232;48.800;9.002;2023-09-19T13:55:04;2.10;;;1.20;;
92;SDS011;16232;48.800;9.002;2023-09-19T13:57:32;2.07;;;1.10;;
92;SDS011;16232;48.800;9.002;2023-09-19T14:00:01;6.60;;;1.73;;
92;SDS011;16232;48.800;9.002;2023-09-19T14:02:30;5.40;;;1.40;;
92;SDS011;16232;48.800;9.002;2023-09-19T14:04:57;1.50;;;1.00;;
92;SDS011;16232;48.800;9.002;2023-09-19T14:07:25;1.20;;;1.07;;
92;SDS011;16232;48.800;9.002;2023-09-19T14:09:52;2.30;;;1.43;;
92;SDS011;16232;48.800;9.002;2023-09-19T14:12:19;3.47;;;1.40;;
92;SDS011;16232;48.800;9.002;2023-09-19T14:14:46;1.80;;;0.87;;
92;SDS011;16232;48.800;9.002;2023-09-19T14:17:17;1.37;;;1.10;;
92;SDS011;16232;48.800;9.002;2023-09-19T14:19:44;2.33;;;0.80;;
92;SDS011;16232;48.800;9.002;2023-09-19T14:22:12;2.00;;;0.87;;
92;SDS011;16232;48.800;9.002;2023-09-19T14:24:39;3.00;;;1.10;;
92;SDS011;16232;48.800;9.002;2023-09-19T14:27:07;1.70;;;1.30;;
92;SDS011;16232;48.800;9.002;2023-09-19T14:29:35;1.77;;;0.90;;
92;SDS011;16232;48.800;9.002;2023-09-19T14:32:03;1.50;;;0.90;;
92;SDS011;16232;48.800;9.002;2023-09-19T14:34:32;1.70;;;0.90;;
92;SDS011;16232;48.800;9.002;2023-09-19T14:37:01;1.97;;;1.00;;
92;SDS011;16232;48.800;9.002;2023-09-19T14:39:29;0.80;;;0.70;;
92;SDS011;16232;48.800;9.002;2023-09-19T14:41:56;1.57;;;1.20;;
92;SDS011;16232;48.800;9.002;2023-09-19T14:44:23;1.17;;;0.83;;
92;SDS011;16232;48.800;9.002;2023-09-19T14:46:51;1.57;;;0.80;;
92;SDS011;16232;48.800;9.002;2023-09-19T14:49:19;1.00;;;0.70;;
92;SDS011;16232;48.800;9.002;2023-09-19T14:51:48;3.13;;;1.07;;
92;SDS011;16232;48.800;9.002;2023-09-19T14:54:17;1.37;;;0.70;;
92;SDS011;16232;48.800;9.002;2023-09-19T14:56:45;1.87;;;0.90;;
92;SDS011;16232;48.800;9.002;2023-09-19T14:59:18;0.83;;;0.70;;
92;SDS011;16232;48.800;9.002;2023-09-19T15:01:46;1.17;;;1.03;;
92;SDS011;16232;48.800;9.002;2023-09-19T15:04:15;1.17;;;0.80;;
92;SDS011;16232;48.800;9.002;2023-09-19T15:06:43;1.27;;;0.87;;
92;SDS011;16232;48.800;9.002;2023-09-19T15:09:13;1.63;;;1.10;;
92;SDS011;16232;48.800;9.002;2023-09-19T15:11:40;0.90;;;0.80;;
92;SDS011;16232;48.800;9.002;2023-09-19T15:14:08;1.73;;;0.80;;
92;SDS011;16232;48.800;9.002;2023-09-19T15:16:35;0.87;;;0.60;;
92;SDS011;16232;48.800;9.002;2023-09-19T15:19:03;1.60;;;0.80;;
92;SDS011;16232;48.800;9.002;2023-09-19T15:21:30;2.93;;;0.80;;
92;SDS011;16232;48.800;9.002;2023-09-19T15:23:57;2.40;;;0.67;;
92;SDS011;16232;48.800;9.002;2023-09-19T15:26:26;1.10;;;0.70;;
92;SDS011;16232;48.800;9.002;2023-09-19T15:28:53;0.80;;;0.70;;
92;SDS011;16232;48.800;9.002;2023-09-19T15:31:21;0.90;;;0.60;;
92;SDS011;16232;48.800;9.002;2023-09-19T15:33:49;1.30;;;0.90;;
92;SDS011;16232;48.800;9.002;2023-09-19T15:36:16;0.60;;;0.60;;
92;SDS011;16232;48.800;9.002;2023-09-19T15:38:55;1.50;;;0.80;;
92;SDS011;16232;48.800;9.002;2023-09-19T15:41:23;2.90;;;0.90;;
92;SDS011;16232;48.800;9.002;2023-09-19T15:43:52;1.20;;;0.80;;
92;SDS011;16232;48.800;9.002;2023-09-19T15:46:19;2.03;;;0.90;;
92;SDS011;16232;48.800;9.002;2023-09-19T15:48:47;0.80;;;0.73;;
92;SDS011;16232;48.800;9.002;2023-09-19T15:51:15;0.70;;;0.60;;
92;SDS011;16232;48.800;9.002;2023-09-19T15:53:43;1.07;;;0.60;;
92;SDS011;16232;48.800;9.002;2023-09-19T15:56:11;1.67;;;0.70;;
92;SDS011;16232;48.800;9.002;2023-09-19T15:58:39;1.53;;;0.70;;
92;SDS011;16232;48.800;9.002;2023-09-19T16:01:08;0.83;;;0.83;;
92;SDS011;16232;48.800;9.002;2023-09-19T16:03:35;1.10;;;0.80;;
92;SDS011;16232;48.800;9.002;2023-09-19T16:06:07;1.10;;;0.70;;
92;SDS011;16232;48.800;9.002;2023-09-19T16:08:35;1.10;;;0.77;;